Terminal Aerodrome Forecast
Issued by NWS

Current Version | Previous Version | Graphics & Text | Print | Product List | Glossary On
Versions: 1 2 3 4 5 6 7 8 9 10 11 12 13 14 15 16 17 18 19 20 21
000
FTUS41 KRLX 090309 AAA
TAFCKB
TAF AMD
KCKB 090309Z 0903/0924 30009KT P6SM OVC030
     FM090600 25009KT 6SM -SHSN OVC025
     FM091500 26009KT P6SM OVC035=

USA.gov is the U.S. government's official web portal to all federal, state and local government web resources and services.